sensor_id;sensor_type;location;lat;lon;timestamp;P1;durP1;ratioP1;P2;durP2;ratioP2
59306;SDS011;47983;53.016;-2.260;2023-07-30T00:00:09;10.27;;;1.60;;
59306;SDS011;47983;53.016;-2.260;2023-07-30T00:02:37;8.52;;;1.55;;
59306;SDS011;47983;53.016;-2.260;2023-07-30T00:05:05;9.77;;;2.00;;
59306;SDS011;47983;53.016;-2.260;2023-07-30T00:07:33;17.85;;;2.40;;
59306;SDS011;47983;53.016;-2.260;2023-07-30T00:10:01;17.35;;;1.90;;
59306;SDS011;47983;53.016;-2.260;2023-07-30T00:12:29;11.85;;;1.73;;
59306;SDS011;47983;53.016;-2.260;2023-07-30T00:14:56;7.53;;;1.70;;
59306;SDS011;47983;53.016;-2.260;2023-07-30T00:17:24;13.02;;;3.50;;
59306;SDS011;47983;53.016;-2.260;2023-07-30T00:19:51;10.00;;;1.40;;
59306;SDS011;47983;53.016;-2.260;2023-07-30T00:22:19;10.55;;;1.42;;
59306;SDS011;47983;53.016;-2.260;2023-07-30T00:24:50;11.80;;;1.50;;
59306;SDS011;47983;53.016;-2.260;2023-07-30T00:27:18;14.68;;;2.17;;
59306;SDS011;47983;53.016;-2.260;2023-07-30T00:29:50;15.85;;;1.95;;
59306;SDS011;47983;53.016;-2.260;2023-07-30T00:32:17;17.58;;;2.42;;
59306;SDS011;47983;53.016;-2.260;2023-07-30T00:34:45;12.40;;;1.98;;
59306;SDS011;47983;53.016;-2.260;2023-07-30T00:37:13;10.52;;;1.80;;
59306;SDS011;47983;53.016;-2.260;2023-07-30T00:39:40;7.70;;;1.30;;
59306;SDS011;47983;53.016;-2.260;2023-07-30T00:42:08;14.98;;;1.80;;
59306;SDS011;47983;53.016;-2.260;2023-07-30T00:44:35;11.15;;;1.75;;
59306;SDS011;47983;53.016;-2.260;2023-07-30T00:47:03;11.07;;;2.50;;
59306;SDS011;47983;53.016;-2.260;2023-07-30T00:49:31;10.52;;;1.77;;
59306;SDS011;47983;53.016;-2.260;2023-07-30T00:51:59;8.98;;;2.08;;
59306;SDS011;47983;53.016;-2.260;2023-07-30T00:54:28;11.05;;;2.08;;
59306;SDS011;47983;53.016;-2.260;2023-07-30T00:56:56;12.18;;;2.03;;
59306;SDS011;47983;53.016;-2.260;2023-07-30T00:59:24;12.68;;;1.95;;
59306;SDS011;47983;53.016;-2.260;2023-07-30T01:01:51;13.43;;;2.03;;
59306;SDS011;47983;53.016;-2.260;2023-07-30T01:04:20;13.57;;;2.15;;
59306;SDS011;47983;53.016;-2.260;2023-07-30T01:06:48;11.73;;;1.70;;
59306;SDS011;47983;53.016;-2.260;2023-07-30T01:09:15;15.20;;;2.22;;
59306;SDS011;47983;53.016;-2.260;2023-07-30T01:11:43;18.48;;;1.98;;
59306;SDS011;47983;53.016;-2.260;2023-07-30T01:14:11;13.57;;;1.75;;
59306;SDS011;47983;53.016;-2.260;2023-07-30T01:16:41;22.83;;;1.85;;
59306;SDS011;47983;53.016;-2.260;2023-07-30T01:19:09;12.85;;;1.67;;
59306;SDS011;47983;53.016;-2.260;2023-07-30T01:21:37;17.23;;;2.05;;
59306;SDS011;47983;53.016;-2.260;2023-07-30T01:24:05;8.32;;;2.25;;
59306;SDS011;47983;53.016;-2.260;2023-07-30T01:27:22;12.52;;;2.08;;
59306;SDS011;47983;53.016;-2.260;2023-07-30T01:29:29;13.35;;;2.13;;
59306;SDS011;47983;53.016;-2.260;2023-07-30T01:32:04;13.15;;;2.28;;
59306;SDS011;47983;53.016;-2.260;2023-07-30T01:34:34;14.45;;;1.70;;
59306;SDS011;47983;53.016;-2.260;2023-07-30T01:37:04;9.23;;;2.00;;
59306;SDS011;47983;53.016;-2.260;2023-07-30T01:39:36;13.05;;;1.92;;
59306;SDS011;47983;53.016;-2.260;2023-07-30T01:42:06;16.17;;;2.80;;
59306;SDS011;47983;53.016;-2.260;2023-07-30T01:44:34;9.05;;;2.00;;
59306;SDS011;47983;53.016;-2.260;2023-07-30T01:47:01;12.45;;;2.60;;
59306;SDS011;47983;53.016;-2.260;2023-07-30T01:49:29;12.10;;;1.85;;
59306;SDS011;47983;53.016;-2.260;2023-07-30T01:51:56;12.25;;;2.25;;
59306;SDS011;47983;53.016;-2.260;2023-07-30T01:54:24;12.15;;;2.08;;
59306;SDS011;47983;53.016;-2.260;2023-07-30T01:56:54;10.80;;;1.77;;
59306;SDS011;47983;53.016;-2.260;2023-07-30T01:59:21;13.80;;;3.42;;
59306;SDS011;47983;53.016;-2.260;2023-07-30T02:01:50;4.38;;;1.20;;
59306;SDS011;47983;53.016;-2.260;2023-07-30T02:04:19;9.88;;;1.80;;
59306;SDS011;47983;53.016;-2.260;2023-07-30T02:06:46;11.45;;;1.63;;
59306;SDS011;47983;53.016;-2.260;2023-07-30T02:09:14;12.40;;;2.47;;
59306;SDS011;47983;53.016;-2.260;2023-07-30T02:11:42;6.68;;;1.55;;
59306;SDS011;47983;53.016;-2.260;2023-07-30T02:14:10;8.43;;;1.52;;
59306;SDS011;47983;53.016;-2.260;2023-07-30T02:16:38;15.65;;;2.35;;
59306;SDS011;47983;53.016;-2.260;2023-07-30T02:19:06;7.38;;;1.42;;
59306;SDS011;47983;53.016;-2.260;2023-07-30T02:21:34;7.40;;;1.77;;
59306;SDS011;47983;53.016;-2.260;2023-07-30T02:24:06;7.50;;;1.33;;
59306;SDS011;47983;53.016;-2.260;2023-07-30T02:26:37;11.10;;;1.50;;
59306;SDS011;47983;53.016;-2.260;2023-07-30T02:29:06;7.65;;;1.67;;
59306;SDS011;47983;53.016;-2.260;2023-07-30T02:31:34;11.55;;;2.45;;
59306;SDS011;47983;53.016;-2.260;2023-07-30T02:34:02;10.02;;;1.40;;
59306;SDS011;47983;53.016;-2.260;2023-07-30T02:36:30;12.32;;;1.67;;
59306;SDS011;47983;53.016;-2.260;2023-07-30T02:38:58;13.55;;;1.50;;
59306;SDS011;47983;53.016;-2.260;2023-07-30T02:41:25;5.05;;;1.13;;
59306;SDS011;47983;53.016;-2.260;2023-07-30T02:43:53;7.78;;;1.92;;
59306;SDS011;47983;53.016;-2.260;2023-07-30T02:46:21;10.32;;;1.50;;
59306;SDS011;47983;53.016;-2.260;2023-07-30T02:48:48;11.75;;;1.10;;
59306;SDS011;47983;53.016;-2.260;2023-07-30T02:51:16;7.68;;;1.40;;
59306;SDS011;47983;53.016;-2.260;2023-07-30T02:53:44;7.18;;;1.38;;
59306;SDS011;47983;53.016;-2.260;2023-07-30T02:56:11;13.43;;;1.33;;
59306;SDS011;47983;53.016;-2.260;2023-07-30T02:58:39;10.23;;;1.50;;
59306;SDS011;47983;53.016;-2.260;2023-07-30T03:01:07;13.48;;;1.45;;
59306;SDS011;47983;53.016;-2.260;2023-07-30T03:03:35;6.65;;;1.20;;
59306;SDS011;47983;53.016;-2.260;2023-07-30T03:06:03;10.25;;;1.50;;
59306;SDS011;47983;53.016;-2.260;2023-07-30T03:08:31;12.70;;;1.38;;
59306;SDS011;47983;53.016;-2.260;2023-07-30T03:10:59;6.63;;;1.40;;
59306;SDS011;47983;53.016;-2.260;2023-07-30T03:13:26;9.43;;;2.10;;
59306;SDS011;47983;53.016;-2.260;2023-07-30T03:15:54;6.22;;;1.05;;
59306;SDS011;47983;53.016;-2.260;2023-07-30T03:18:22;7.20;;;1.42;;
59306;SDS011;47983;53.016;-2.260;2023-07-30T03:20:50;4.88;;;1.58;;
59306;SDS011;47983;53.016;-2.260;2023-07-30T03:23:18;7.25;;;1.27;;
59306;SDS011;47983;53.016;-2.260;2023-07-30T03:25:46;7.70;;;2.17;;
59306;SDS011;47983;53.016;-2.260;2023-07-30T03:28:13;5.65;;;0.90;;
59306;SDS011;47983;53.016;-2.260;2023-07-30T03:30:41;7.68;;;0.90;;
59306;SDS011;47983;53.016;-2.260;2023-07-30T03:33:09;7.05;;;1.10;;
59306;SDS011;47983;53.016;-2.260;2023-07-30T03:35:37;10.40;;;2.22;;
59306;SDS011;47983;53.016;-2.260;2023-07-30T03:38:05;5.95;;;0.88;;
59306;SDS011;47983;53.016;-2.260;2023-07-30T03:40:33;7.78;;;1.27;;
59306;SDS011;47983;53.016;-2.260;2023-07-30T03:43:01;9.95;;;1.80;;
59306;SDS011;47983;53.016;-2.260;2023-07-30T03:45:29;8.55;;;1.13;;
59306;SDS011;47983;53.016;-2.260;2023-07-30T03:47:56;7.00;;;1.27;;
59306;SDS011;47983;53.016;-2.260;2023-07-30T03:50:24;6.20;;;1.40;;
59306;SDS011;47983;53.016;-2.260;2023-07-30T03:52:52;7.65;;;1.48;;
59306;SDS011;47983;53.016;-2.260;2023-07-30T03:55:20;11.25;;;1.65;;
59306;SDS011;47983;53.016;-2.260;2023-07-30T03:57:50;8.75;;;1.38;;
59306;SDS011;47983;53.016;-2.260;2023-07-30T04:00:19;6.93;;;1.20;;
59306;SDS011;47983;53.016;-2.260;2023-07-30T04:02:49;9.52;;;1.23;;
59306;SDS011;47983;53.016;-2.260;2023-07-30T04:05:17;9.95;;;1.02;;
59306;SDS011;47983;53.016;-2.260;2023-07-30T04:07:45;5.25;;;1.30;;
59306;SDS011;47983;53.016;-2.260;2023-07-30T04:10:12;8.48;;;1.02;;
59306;SDS011;47983;53.016;-2.260;2023-07-30T04:12:40;6.10;;;0.98;;
59306;SDS011;47983;53.016;-2.260;2023-07-30T04:15:08;8.15;;;1.00;;
59306;SDS011;47983;53.016;-2.260;2023-07-30T04:17:36;8.73;;;0.93;;
59306;SDS011;47983;53.016;-2.260;2023-07-30T04:20:05;6.00;;;0.85;;
59306;SDS011;47983;53.016;-2.260;2023-07-30T04:22:33;6.47;;;1.20;;
59306;SDS011;47983;53.016;-2.260;2023-07-30T04:25:00;7.00;;;1.33;;
59306;SDS011;47983;53.016;-2.260;2023-07-30T04:27:28;8.80;;;1.20;;
59306;SDS011;47983;53.016;-2.260;2023-07-30T04:29:59;7.82;;;1.67;;
59306;SDS011;47983;53.016;-2.260;2023-07-30T04:32:26;9.52;;;1.02;;
59306;SDS011;47983;53.016;-2.260;2023-07-30T04:34:55;10.93;;;1.00;;
59306;SDS011;47983;53.016;-2.260;2023-07-30T04:37:23;5.38;;;1.35;;
59306;SDS011;47983;53.016;-2.260;2023-07-30T04:39:53;5.63;;;0.88;;
59306;SDS011;47983;53.016;-2.260;2023-07-30T04:42:21;8.20;;;1.13;;
59306;SDS011;47983;53.016;-2.260;2023-07-30T04:44:49;10.50;;;1.40;;
59306;SDS011;47983;53.016;-2.260;2023-07-30T04:47:19;8.27;;;1.23;;
59306;SDS011;47983;53.016;-2.260;2023-07-30T04:49:48;10.60;;;2.60;;
59306;SDS011;47983;53.016;-2.260;2023-07-30T04:52:18;9.10;;;1.15;;
59306;SDS011;47983;53.016;-2.260;2023-07-30T04:54:46;7.75;;;1.45;;
59306;SDS011;47983;53.016;-2.260;2023-07-30T04:57:14;6.10;;;1.20;;
59306;SDS011;47983;53.016;-2.260;2023-07-30T04:59:44;1.42;;;0.70;;
59306;SDS011;47983;53.016;-2.260;2023-07-30T05:02:12;9.48;;;1.38;;
59306;SDS011;47983;53.016;-2.260;2023-07-30T05:04:40;4.65;;;1.00;;
59306;SDS011;47983;53.016;-2.260;2023-07-30T05:07:08;5.00;;;0.88;;
59306;SDS011;47983;53.016;-2.260;2023-07-30T05:09:36;3.58;;;0.95;;
59306;SDS011;47983;53.016;-2.260;2023-07-30T05:12:04;6.63;;;1.23;;
59306;SDS011;47983;53.016;-2.260;2023-07-30T05:14:32;4.20;;;0.80;;
59306;SDS011;47983;53.016;-2.260;2023-07-30T05:16:59;12.10;;;1.80;;
59306;SDS011;47983;53.016;-2.260;2023-07-30T05:19:27;6.65;;;0.80;;
59306;SDS011;47983;53.016;-2.260;2023-07-30T05:21:55;6.47;;;1.63;;
59306;SDS011;47983;53.016;-2.260;2023-07-30T05:24:23;10.55;;;2.08;;
59306;SDS011;47983;53.016;-2.260;2023-07-30T05:26:50;8.07;;;1.27;;
59306;SDS011;47983;53.016;-2.260;2023-07-30T05:29:18;11.68;;;2.33;;
59306;SDS011;47983;53.016;-2.260;2023-07-30T05:31:46;8.10;;;1.90;;
59306;SDS011;47983;53.016;-2.260;2023-07-30T05:34:14;10.05;;;1.30;;
59306;SDS011;47983;53.016;-2.260;2023-07-30T05:36:41;4.80;;;0.80;;
59306;SDS011;47983;53.016;-2.260;2023-07-30T05:39:09;6.90;;;1.20;;
59306;SDS011;47983;53.016;-2.260;2023-07-30T05:41:37;13.98;;;1.30;;
59306;SDS011;47983;53.016;-2.260;2023-07-30T05:44:05;6.97;;;1.13;;
59306;SDS011;47983;53.016;-2.260;2023-07-30T05:46:33;14.55;;;1.88;;
59306;SDS011;47983;53.016;-2.260;2023-07-30T05:49:01;7.20;;;1.50;;
59306;SDS011;47983;53.016;-2.260;2023-07-30T05:51:28;6.57;;;1.67;;
59306;SDS011;47983;53.016;-2.260;2023-07-30T05:53:56;10.57;;;1.73;;
59306;SDS011;47983;53.016;-2.260;2023-07-30T05:56:24;7.88;;;1.48;;
59306;SDS011;47983;53.016;-2.260;2023-07-30T05:58:51;4.93;;;1.15;;
59306;SDS011;47983;53.016;-2.260;2023-07-30T06:01:22;4.65;;;1.23;;
59306;SDS011;47983;53.016;-2.260;2023-07-30T06:03:50;8.38;;;1.40;;
59306;SDS011;47983;53.016;-2.260;2023-07-30T06:06:19;4.40;;;0.97;;
59306;SDS011;47983;53.016;-2.260;2023-07-30T06:08:54;8.95;;;1.00;;
59306;SDS011;47983;53.016;-2.260;2023-07-30T06:11:22;8.30;;;1.88;;
59306;SDS011;47983;53.016;-2.260;2023-07-30T06:13:50;5.32;;;0.98;;
59306;SDS011;47983;53.016;-2.260;2023-07-30T06:16:18;6.05;;;1.02;;
59306;SDS011;47983;53.016;-2.260;2023-07-30T06:18:47;12.75;;;2.20;;
59306;SDS011;47983;53.016;-2.260;2023-07-30T06:21:14;6.15;;;1.00;;
59306;SDS011;47983;53.016;-2.260;2023-07-30T06:23:42;4.57;;;1.27;;
59306;SDS011;47983;53.016;-2.260;2023-07-30T06:26:10;9.18;;;1.90;;
59306;SDS011;47983;53.016;-2.260;2023-07-30T06:28:37;5.78;;;0.90;;
59306;SDS011;47983;53.016;-2.260;2023-07-30T06:31:05;6.93;;;1.17;;
59306;SDS011;47983;53.016;-2.260;2023-07-30T06:33:36;5.30;;;1.10;;
59306;SDS011;47983;53.016;-2.260;2023-07-30T06:36:04;4.15;;;0.77;;
59306;SDS011;47983;53.016;-2.260;2023-07-30T06:38:32;7.38;;;1.20;;
59306;SDS011;47983;53.016;-2.260;2023-07-30T06:41:02;6.25;;;1.08;;
59306;SDS011;47983;53.016;-2.260;2023-07-30T06:43:30;5.22;;;1.55;;
59306;SDS011;47983;53.016;-2.260;2023-07-30T06:45:57;5.93;;;1.20;;
59306;SDS011;47983;53.016;-2.260;2023-07-30T06:48:25;9.30;;;1.33;;
59306;SDS011;47983;53.016;-2.260;2023-07-30T06:50:53;10.68;;;1.30;;
59306;SDS011;47983;53.016;-2.260;2023-07-30T06:53:21;9.77;;;1.42;;
59306;SDS011;47983;53.016;-2.260;2023-07-30T06:55:48;7.55;;;1.25;;
59306;SDS011;47983;53.016;-2.260;2023-07-30T06:58:16;9.60;;;1.05;;
59306;SDS011;47983;53.016;-2.260;2023-07-30T07:00:44;11.50;;;1.15;;
59306;SDS011;47983;53.016;-2.260;2023-07-30T07:03:12;6.85;;;1.42;;
59306;SDS011;47983;53.016;-2.260;2023-07-30T07:05:39;10.10;;;1.65;;
59306;SDS011;47983;53.016;-2.260;2023-07-30T07:08:11;4.40;;;0.75;;
59306;SDS011;47983;53.016;-2.260;2023-07-30T07:10:38;7.22;;;1.05;;
59306;SDS011;47983;53.016;-2.260;2023-07-30T07:13:06;9.65;;;1.00;;
59306;SDS011;47983;53.016;-2.260;2023-07-30T07:15:34;4.28;;;1.08;;
59306;SDS011;47983;53.016;-2.260;2023-07-30T07:18:01;5.32;;;0.80;;
59306;SDS011;47983;53.016;-2.260;2023-07-30T07:20:29;6.15;;;0.90;;
59306;SDS011;47983;53.016;-2.260;2023-07-30T07:22:57;6.18;;;1.17;;
59306;SDS011;47983;53.016;-2.260;2023-07-30T07:25:25;5.32;;;1.17;;
59306;SDS011;47983;53.016;-2.260;2023-07-30T07:27:52;6.22;;;1.00;;
59306;SDS011;47983;53.016;-2.260;2023-07-30T07:30:20;5.50;;;0.85;;
59306;SDS011;47983;53.016;-2.260;2023-07-30T07:32:48;3.67;;;1.25;;
59306;SDS011;47983;53.016;-2.260;2023-07-30T07:35:19;4.05;;;0.82;;
59306;SDS011;47983;53.016;-2.260;2023-07-30T07:37:47;5.10;;;0.80;;
59306;SDS011;47983;53.016;-2.260;2023-07-30T07:40:15;6.32;;;0.77;;
59306;SDS011;47983;53.016;-2.260;2023-07-30T07:42:43;6.03;;;1.13;;
59306;SDS011;47983;53.016;-2.260;2023-07-30T07:45:11;3.08;;;0.70;;
59306;SDS011;47983;53.016;-2.260;2023-07-30T07:47:38;3.85;;;0.70;;
59306;SDS011;47983;53.016;-2.260;2023-07-30T07:50:06;4.30;;;0.68;;
59306;SDS011;47983;53.016;-2.260;2023-07-30T07:52:34;6.63;;;0.80;;
59306;SDS011;47983;53.016;-2.260;2023-07-30T07:55:03;3.38;;;0.80;;
59306;SDS011;47983;53.016;-2.260;2023-07-30T07:57:31;5.43;;;0.73;;
59306;SDS011;47983;53.016;-2.260;2023-07-30T08:00:01;5.32;;;1.05;;
59306;SDS011;47983;53.016;-2.260;2023-07-30T08:02:37;6.13;;;0.82;;
59306;SDS011;47983;53.016;-2.260;2023-07-30T08:05:06;4.18;;;0.73;;
59306;SDS011;47983;53.016;-2.260;2023-07-30T08:07:34;3.70;;;0.73;;
59306;SDS011;47983;53.016;-2.260;2023-07-30T08:10:02;7.35;;;0.82;;
59306;SDS011;47983;53.016;-2.260;2023-07-30T08:12:33;2.80;;;1.08;;
59306;SDS011;47983;53.016;-2.260;2023-07-30T08:15:02;2.95;;;0.60;;
59306;SDS011;47983;53.016;-2.260;2023-07-30T08:17:30;5.63;;;1.10;;
59306;SDS011;47983;53.016;-2.260;2023-07-30T08:19:57;3.05;;;0.63;;
59306;SDS011;47983;53.016;-2.260;2023-07-30T08:22:25;2.78;;;0.60;;
59306;SDS011;47983;53.016;-2.260;2023-07-30T08:24:53;2.38;;;0.50;;
59306;SDS011;47983;53.016;-2.260;2023-07-30T08:27:21;6.30;;;0.80;;
59306;SDS011;47983;53.016;-2.260;2023-07-30T08:29:49;3.90;;;0.50;;
59306;SDS011;47983;53.016;-2.260;2023-07-30T08:32:17;4.55;;;0.68;;
59306;SDS011;47983;53.016;-2.260;2023-07-30T08:34:45;3.40;;;0.60;;
59306;SDS011;47983;53.016;-2.260;2023-07-30T08:37:12;6.43;;;0.55;;
59306;SDS011;47983;53.016;-2.260;2023-07-30T08:39:40;0.90;;;0.50;;
59306;SDS011;47983;53.016;-2.260;2023-07-30T08:42:08;2.88;;;0.57;;
59306;SDS011;47983;53.016;-2.260;2023-07-30T08:44:36;7.60;;;0.80;;
59306;SDS011;47983;53.016;-2.260;2023-07-30T08:47:03;5.20;;;0.73;;
59306;SDS011;47983;53.016;-2.260;2023-07-30T08:49:31;3.15;;;0.70;;
59306;SDS011;47983;53.016;-2.260;2023-07-30T08:52:02;6.70;;;0.70;;
59306;SDS011;47983;53.016;-2.260;2023-07-30T08:54:31;4.30;;;0.57;;
59306;SDS011;47983;53.016;-2.260;2023-07-30T08:56:59;5.22;;;0.65;;
59306;SDS011;47983;53.016;-2.260;2023-07-30T08:59:29;5.60;;;0.60;;
59306;SDS011;47983;53.016;-2.260;2023-07-30T09:02:00;1.45;;;0.60;;
59306;SDS011;47983;53.016;-2.260;2023-07-30T09:04:29;7.82;;;1.08;;
59306;SDS011;47983;53.016;-2.260;2023-07-30T09:07:01;4.47;;;0.50;;
59306;SDS011;47983;53.016;-2.260;2023-07-30T09:09:29;3.63;;;0.50;;
59306;SDS011;47983;53.016;-2.260;2023-07-30T09:11:57;3.97;;;0.52;;
59306;SDS011;47983;53.016;-2.260;2023-07-30T09:14:26;5.23;;;0.97;;
59306;SDS011;47983;53.016;-2.260;2023-07-30T09:16:57;4.43;;;0.80;;
59306;SDS011;47983;53.016;-2.260;2023-07-30T09:19:25;4.65;;;0.80;;
59306;SDS011;47983;53.016;-2.260;2023-07-30T09:21:54;4.43;;;0.68;;
59306;SDS011;47983;53.016;-2.260;2023-07-30T09:24:22;4.30;;;0.65;;
59306;SDS011;47983;53.016;-2.260;2023-07-30T09:26:49;7.47;;;1.00;;
59306;SDS011;47983;53.016;-2.260;2023-07-30T09:29:17;4.38;;;0.70;;
59306;SDS011;47983;53.016;-2.260;2023-07-30T09:31:49;3.60;;;0.45;;
59306;SDS011;47983;53.016;-2.260;2023-07-30T09:34:24;3.10;;;0.60;;
59306;SDS011;47983;53.016;-2.260;2023-07-30T09:36:53;4.60;;;0.65;;
59306;SDS011;47983;53.016;-2.260;2023-07-30T09:39:22;9.23;;;1.15;;
59306;SDS011;47983;53.016;-2.260;2023-07-30T09:41:52;1.42;;;0.60;;
59306;SDS011;47983;53.016;-2.260;2023-07-30T09:44:26;3.95;;;0.68;;
59306;SDS011;47983;53.016;-2.260;2023-07-30T09:46:54;4.18;;;0.47;;
59306;SDS011;47983;53.016;-2.260;2023-07-30T09:49:25;6.35;;;0.73;;
59306;SDS011;47983;53.016;-2.260;2023-07-30T09:51:52;3.33;;;0.43;;
59306;SDS011;47983;53.016;-2.260;2023-07-30T09:54:22;7.13;;;1.10;;
59306;SDS011;47983;53.016;-2.260;2023-07-30T09:56:50;4.43;;;0.68;;
59306;SDS011;47983;53.016;-2.260;2023-07-30T09:59:17;4.00;;;0.65;;
59306;SDS011;47983;53.016;-2.260;2023-07-30T10:01:46;6.20;;;0.73;;
59306;SDS011;47983;53.016;-2.260;2023-07-30T10:04:20;3.58;;;0.60;;
59306;SDS011;47983;53.016;-2.260;2023-07-30T10:06:55;2.35;;;0.70;;
59306;SDS011;47983;53.016;-2.260;2023-07-30T10:09:33;2.08;;;0.70;;
59306;SDS011;47983;53.016;-2.260;2023-07-30T10:12:05;4.03;;;0.90;;
59306;SDS011;47983;53.016;-2.260;2023-07-30T10:14:34;3.78;;;1.05;;
59306;SDS011;47983;53.016;-2.260;2023-07-30T10:17:02;3.45;;;0.68;;
59306;SDS011;47983;53.016;-2.260;2023-07-30T10:19:30;5.78;;;0.70;;
59306;SDS011;47983;53.016;-2.260;2023-07-30T10:24:39;5.40;;;0.90;;
59306;SDS011;47983;53.016;-2.260;2023-07-30T10:27:07;8.27;;;1.00;;
59306;SDS011;47983;53.016;-2.260;2023-07-30T10:29:38;4.60;;;0.63;;
59306;SDS011;47983;53.016;-2.260;2023-07-30T10:32:10;3.65;;;1.17;;
59306;SDS011;47983;53.016;-2.260;2023-07-30T10:34:47;5.97;;;0.70;;
59306;SDS011;47983;53.016;-2.260;2023-07-30T10:37:20;1.83;;;0.50;;
59306;SDS011;47983;53.016;-2.260;2023-07-30T10:39:49;3.80;;;0.60;;
59306;SDS011;47983;53.016;-2.260;2023-07-30T10:42:17;3.28;;;0.60;;
59306;SDS011;47983;53.016;-2.260;2023-07-30T10:44:45;3.22;;;0.65;;
59306;SDS011;47983;53.016;-2.260;2023-07-30T10:47:13;2.92;;;0.68;;
59306;SDS011;47983;53.016;-2.260;2023-07-30T10:50:01;4.93;;;0.75;;
59306;SDS011;47983;53.016;-2.260;2023-07-30T10:52:30;1.67;;;0.70;;
59306;SDS011;47983;53.016;-2.260;2023-07-30T10:55:00;4.07;;;0.57;;
59306;SDS011;47983;53.016;-2.260;2023-07-30T10:57:32;5.28;;;0.40;;
59306;SDS011;47983;53.016;-2.260;2023-07-30T10:59:59;10.55;;;1.60;;
59306;SDS011;47983;53.016;-2.260;2023-07-30T11:02:30;3.42;;;0.57;;
59306;SDS011;47983;53.016;-2.260;2023-07-30T11:04:58;4.85;;;0.50;;
59306;SDS011;47983;53.016;-2.260;2023-07-30T11:07:38;2.60;;;0.93;;
59306;SDS011;47983;53.016;-2.260;2023-07-30T11:10:06;2.97;;;1.70;;
59306;SDS011;47983;53.016;-2.260;2023-07-30T11:12:35;2.28;;;0.45;;
59306;SDS011;47983;53.016;-2.260;2023-07-30T11:15:02;5.85;;;0.60;;
59306;SDS011;47983;53.016;-2.260;2023-07-30T11:17:30;2.20;;;0.45;;
59306;SDS011;47983;53.016;-2.260;2023-07-30T11:19:58;3.45;;;0.57;;
59306;SDS011;47983;53.016;-2.260;2023-07-30T11:22:29;2.95;;;0.50;;
59306;SDS011;47983;53.016;-2.260;2023-07-30T11:24:58;3.80;;;0.65;;
59306;SDS011;47983;53.016;-2.260;2023-07-30T11:27:29;2.42;;;0.47;;
59306;SDS011;47983;53.016;-2.260;2023-07-30T11:29:57;9.25;;;0.70;;
59306;SDS011;47983;53.016;-2.260;2023-07-30T11:32:27;2.60;;;0.68;;
59306;SDS011;47983;53.016;-2.260;2023-07-30T11:34:57;4.15;;;1.05;;
59306;SDS011;47983;53.016;-2.260;2023-07-30T11:37:27;6.43;;;0.70;;
59306;SDS011;47983;53.016;-2.260;2023-07-30T11:39:55;4.47;;;0.60;;
59306;SDS011;47983;53.016;-2.260;2023-07-30T11:42:23;4.82;;;0.60;;
59306;SDS011;47983;53.016;-2.260;2023-07-30T11:44:51;9.60;;;1.08;;
59306;SDS011;47983;53.016;-2.260;2023-07-30T11:47:22;3.47;;;0.65;;
59306;SDS011;47983;53.016;-2.260;2023-07-30T11:49:57;3.88;;;0.85;;
59306;SDS011;47983;53.016;-2.260;2023-07-30T11:52:28;4.40;;;0.90;;
59306;SDS011;47983;53.016;-2.260;2023-07-30T11:55:02;2.17;;;0.75;;
59306;SDS011;47983;53.016;-2.260;2023-07-30T11:57:36;2.83;;;0.70;;
59306;SDS011;47983;53.016;-2.260;2023-07-30T12:00:05;5.90;;;0.90;;
59306;SDS011;47983;53.016;-2.260;2023-07-30T12:02:38;7.57;;;1.27;;
59306;SDS011;47983;53.016;-2.260;2023-07-30T12:05:06;3.92;;;0.80;;
59306;SDS011;47983;53.016;-2.260;2023-07-30T12:07:39;4.97;;;1.08;;
59306;SDS011;47983;53.016;-2.260;2023-07-30T12:12:43;5.13;;;0.98;;
59306;SDS011;47983;53.016;-2.260;2023-07-30T12:15:12;4.25;;;0.90;;
59306;SDS011;47983;53.016;-2.260;2023-07-30T12:17:40;4.38;;;0.90;;
59306;SDS011;47983;53.016;-2.260;2023-07-30T12:20:08;6.93;;;1.10;;
59306;SDS011;47983;53.016;-2.260;2023-07-30T12:22:36;6.47;;;1.08;;
59306;SDS011;47983;53.016;-2.260;2023-07-30T12:25:05;6.45;;;0.95;;
59306;SDS011;47983;53.016;-2.260;2023-07-30T12:27:35;6.55;;;1.30;;
59306;SDS011;47983;53.016;-2.260;2023-07-30T12:30:03;9.00;;;1.23;;
59306;SDS011;47983;53.016;-2.260;2023-07-30T12:32:31;6.43;;;1.20;;
59306;SDS011;47983;53.016;-2.260;2023-07-30T12:34:59;4.82;;;1.00;;
59306;SDS011;47983;53.016;-2.260;2023-07-30T12:37:28;6.32;;;1.23;;
59306;SDS011;47983;53.016;-2.260;2023-07-30T12:39:56;6.82;;;1.20;;
59306;SDS011;47983;53.016;-2.260;2023-07-30T12:42:26;4.97;;;1.20;;
59306;SDS011;47983;53.016;-2.260;2023-07-30T12:44:59;2.67;;;0.80;;
59306;SDS011;47983;53.016;-2.260;2023-07-30T12:47:26;2.28;;;0.95;;
59306;SDS011;47983;53.016;-2.260;2023-07-30T12:49:54;3.72;;;0.90;;
59306;SDS011;47983;53.016;-2.260;2023-07-30T12:52:24;10.55;;;1.02;;
59306;SDS011;47983;53.016;-2.260;2023-07-30T12:54:52;3.65;;;0.82;;
59306;SDS011;47983;53.016;-2.260;2023-07-30T12:57:20;9.27;;;0.95;;
59306;SDS011;47983;53.016;-2.260;2023-07-30T12:59:50;3.13;;;0.90;;
59306;SDS011;47983;53.016;-2.260;2023-07-30T13:02:18;3.78;;;1.05;;
59306;SDS011;47983;53.016;-2.260;2023-07-30T13:04:46;8.82;;;1.08;;
59306;SDS011;47983;53.016;-2.260;2023-07-30T13:07:14;4.78;;;1.20;;
59306;SDS011;47983;53.016;-2.260;2023-07-30T13:09:42;4.88;;;1.48;;
59306;SDS011;47983;53.016;-2.260;2023-07-30T13:12:11;4.90;;;1.17;;
59306;SDS011;47983;53.016;-2.260;2023-07-30T13:14:39;5.47;;;1.10;;
59306;SDS011;47983;53.016;-2.260;2023-07-30T13:17:07;4.68;;;1.20;;
59306;SDS011;47983;53.016;-2.260;2023-07-30T13:19:35;6.93;;;1.33;;
59306;SDS011;47983;53.016;-2.260;2023-07-30T13:22:03;7.05;;;1.00;;
59306;SDS011;47983;53.016;-2.260;2023-07-30T13:24:31;6.85;;;1.00;;
59306;SDS011;47983;53.016;-2.260;2023-07-30T13:27:00;5.07;;;1.52;;
59306;SDS011;47983;53.016;-2.260;2023-07-30T13:29:27;10.25;;;1.15;;
59306;SDS011;47983;53.016;-2.260;2023-07-30T13:31:55;6.10;;;1.08;;
59306;SDS011;47983;53.016;-2.260;2023-07-30T13:34:23;6.22;;;1.10;;
59306;SDS011;47983;53.016;-2.260;2023-07-30T13:36:51;3.85;;;1.25;;
59306;SDS011;47983;53.016;-2.260;2023-07-30T13:39:22;5.05;;;1.00;;
59306;SDS011;47983;53.016;-2.260;2023-07-30T13:41:50;5.00;;;1.10;;
59306;SDS011;47983;53.016;-2.260;2023-07-30T13:44:20;8.00;;;1.63;;
59306;SDS011;47983;53.016;-2.260;2023-07-30T13:46:48;4.93;;;1.48;;
59306;SDS011;47983;53.016;-2.260;2023-07-30T13:49:16;6.22;;;1.13;;
59306;SDS011;47983;53.016;-2.260;2023-07-30T13:51:46;5.85;;;1.10;;
59306;SDS011;47983;53.016;-2.260;2023-07-30T13:54:14;4.43;;;1.10;;
59306;SDS011;47983;53.016;-2.260;2023-07-30T13:56:41;4.20;;;1.20;;
59306;SDS011;47983;53.016;-2.260;2023-07-30T13:59:09;3.58;;;1.15;;
59306;SDS011;47983;53.016;-2.260;2023-07-30T14:01:37;4.70;;;1.02;;
59306;SDS011;47983;53.016;-2.260;2023-07-30T14:04:08;4.38;;;1.30;;
59306;SDS011;47983;53.016;-2.260;2023-07-30T14:09:04;2.15;;;0.80;;
59306;SDS011;47983;53.016;-2.260;2023-07-30T14:11:32;4.72;;;1.35;;
59306;SDS011;47983;53.016;-2.260;2023-07-30T14:14:00;5.35;;;1.45;;
59306;SDS011;47983;53.016;-2.260;2023-07-30T14:16:29;3.83;;;0.80;;
59306;SDS011;47983;53.016;-2.260;2023-07-30T14:18:57;3.13;;;0.90;;
59306;SDS011;47983;53.016;-2.260;2023-07-30T14:21:24;5.05;;;1.33;;
59306;SDS011;47983;53.016;-2.260;2023-07-30T14:23:52;6.35;;;1.85;;
59306;SDS011;47983;53.016;-2.260;2023-07-30T14:26:20;3.97;;;1.00;;
59306;SDS011;47983;53.016;-2.260;2023-07-30T14:28:48;4.00;;;1.30;;
59306;SDS011;47983;53.016;-2.260;2023-07-30T14:31:16;3.60;;;1.00;;
59306;SDS011;47983;53.016;-2.260;2023-07-30T14:33:43;6.10;;;1.20;;
59306;SDS011;47983;53.016;-2.260;2023-07-30T14:36:11;5.05;;;1.13;;
59306;SDS011;47983;53.016;-2.260;2023-07-30T14:38:39;2.45;;;0.73;;
59306;SDS011;47983;53.016;-2.260;2023-07-30T14:41:07;2.67;;;1.02;;
59306;SDS011;47983;53.016;-2.260;2023-07-30T14:43:36;4.80;;;1.08;;
59306;SDS011;47983;53.016;-2.260;2023-07-30T14:46:04;6.65;;;1.02;;